sensor_id;sensor_type;location;lat;lon;timestamp;pressure;altitude;pressure_sealevel;temperature;humidity
36222;BME280;22266;52.340;4.962;2023-05-11T00:00:37;101453.25;;;14.01;78.18
36222;BME280;22266;52.340;4.962;2023-05-11T00:03:04;101442.63;;;13.99;78.43
36222;BME280;22266;52.340;4.962;2023-05-11T00:05:31;101446.56;;;13.97;78.77
36222;BME280;22266;52.340;4.962;2023-05-11T00:07:58;101447.22;;;13.99;78.73
36222;BME280;22266;52.340;4.962;2023-05-11T00:10:24;101452.41;;;14.00;78.34
36222;BME280;22266;52.340;4.962;2023-05-11T00:12:51;101447.44;;;14.04;78.37
36222;BME280;22266;52.340;4.962;2023-05-11T00:15:17;101442.69;;;14.06;78.40
36222;BME280;22266;52.340;4.962;2023-05-11T00:17:44;101450.38;;;14.09;78.26
36222;BME280;22266;52.340;4.962;2023-05-11T00:20:10;101442.06;;;14.10;78.31
36222;BME280;22266;52.340;4.962;2023-05-11T00:22:37;101438.53;;;14.10;78.31
36222;BME280;22266;52.340;4.962;2023-05-11T00:25:04;101436.84;;;14.09;78.39
36222;BME280;22266;52.340;4.962;2023-05-11T00:27:31;101432.47;;;14.08;78.22
36222;BME280;22266;52.340;4.962;2023-05-11T00:29:58;101435.38;;;14.06;78.20
36222;BME280;22266;52.340;4.962;2023-05-11T00:32:24;101435.38;;;14.06;78.29
36222;BME280;22266;52.340;4.962;2023-05-11T00:34:51;101438.94;;;14.07;78.74
36222;BME280;22266;52.340;4.962;2023-05-11T00:37:17;101444.34;;;14.07;78.66
36222;BME280;22266;52.340;4.962;2023-05-11T00:39:44;101433.47;;;14.00;78.72
36222;BME280;22266;52.340;4.962;2023-05-11T00:42:10;101443.69;;;13.98;79.05
36222;BME280;22266;52.340;4.962;2023-05-11T00:44:37;101434.09;;;13.96;79.05
36222;BME280;22266;52.340;4.962;2023-05-11T00:47:03;101440.31;;;13.96;78.99
36222;BME280;22266;52.340;4.962;2023-05-11T00:49:30;101434.91;;;13.96;79.01
36222;BME280;22266;52.340;4.962;2023-05-11T00:51:57;101435.75;;;13.97;79.28
36222;BME280;22266;52.340;4.962;2023-05-11T00:54:28;101426.56;;;13.91;78.96
36222;BME280;22266;52.340;4.962;2023-05-11T00:56:54;101423.03;;;13.91;79.53
36222;BME280;22266;52.340;4.962;2023-05-11T00:59:21;101429.69;;;13.88;79.22
36222;BME280;22266;52.340;4.962;2023-05-11T01:01:48;101424.91;;;13.90;79.58
36222;BME280;22266;52.340;4.962;2023-05-11T01:04:15;101430.13;;;13.92;79.14
36222;BME280;22266;52.340;4.962;2023-05-11T01:06:44;101435.75;;;13.90;79.17
36222;BME280;22266;52.340;4.962;2023-05-11T01:09:51;101427.19;;;13.93;79.05
36222;BME280;22266;52.340;4.962;2023-05-11T01:12:15;101424.69;;;13.92;79.34
36222;BME280;22266;52.340;4.962;2023-05-11T01:14:48;101427.41;;;13.92;78.94
36222;BME280;22266;52.340;4.962;2023-05-11T01:17:28;101428.63;;;13.89;79.15
36222;BME280;22266;52.340;4.962;2023-05-11T01:20:08;101431.34;;;13.89;79.07
36222;BME280;22266;52.340;4.962;2023-05-11T01:22:50;101436.75;;;13.89;79.29
36222;BME280;22266;52.340;4.962;2023-05-11T01:25:47;101431.78;;;13.93;78.91
36222;BME280;22266;52.340;4.962;2023-05-11T01:31:10;101438.22;;;13.92;78.97
36222;BME280;22266;52.340;4.962;2023-05-11T01:33:43;101438.44;;;13.90;78.98
36222;BME280;22266;52.340;4.962;2023-05-11T01:36:14;101443.03;;;13.90;79.14
36222;BME280;22266;52.340;4.962;2023-05-11T01:38:45;101444.69;;;13.91;79.13
36222;BME280;22266;52.340;4.962;2023-05-11T01:41:15;101440.72;;;13.93;79.26
36222;BME280;22266;52.340;4.962;2023-05-11T01:43:55;101437.19;;;13.93;78.96
36222;BME280;22266;52.340;4.962;2023-05-11T01:46:25;101436.56;;;13.91;78.96
36222;BME280;22266;52.340;4.962;2023-05-11T01:48:55;101439.91;;;13.93;79.39
36222;BME280;22266;52.340;4.962;2023-05-11T01:51:28;101438.03;;;13.93;79.30
36222;BME280;22266;52.340;4.962;2023-05-11T01:53:57;101440.53;;;13.95;79.57
36222;BME280;22266;52.340;4.962;2023-05-11T01:56:25;101438.03;;;13.93;79.59
36222;BME280;22266;52.340;4.962;2023-05-11T01:58:54;101437.00;;;13.94;79.75
36222;BME280;22266;52.340;4.962;2023-05-11T02:01:23;101434.91;;;13.90;79.47
36222;BME280;22266;52.340;4.962;2023-05-11T02:03:50;101447.56;;;13.82;79.87
36222;BME280;22266;52.340;4.962;2023-05-11T02:06:18;101444.81;;;13.76;80.55
36222;BME280;22266;52.340;4.962;2023-05-11T02:08:48;101447.34;;;13.77;80.82
36222;BME280;22266;52.340;4.962;2023-05-11T02:11:15;101451.88;;;13.77;80.71
36222;BME280;22266;52.340;4.962;2023-05-11T02:13:45;101452.31;;;13.80;80.92
36222;BME280;22266;52.340;4.962;2023-05-11T02:16:14;101448.78;;;13.80;80.93
36222;BME280;22266;52.340;4.962;2023-05-11T02:18:41;101446.09;;;13.80;80.73
36222;BME280;22266;52.340;4.962;2023-05-11T02:21:08;101447.13;;;13.79;80.66
36222;BME280;22266;52.340;4.962;2023-05-11T02:23:38;101449.63;;;13.80;80.87
36222;BME280;22266;52.340;4.962;2023-05-11T02:26:05;101447.34;;;13.77;81.02
36222;BME280;22266;52.340;4.962;2023-05-11T02:28:33;101442.94;;;13.76;80.99
36222;BME280;22266;52.340;4.962;2023-05-11T02:31:04;101449.19;;;13.77;81.09
36222;BME280;22266;52.340;4.962;2023-05-11T02:33:38;101445.47;;;13.78;80.85
36222;BME280;22266;52.340;4.962;2023-05-11T02:36:09;101460.88;;;13.77;81.16
36222;BME280;22266;52.340;4.962;2023-05-11T02:38:42;101453.16;;;13.74;80.94
36222;BME280;22266;52.340;4.962;2023-05-11T02:41:15;101449.78;;;13.72;81.03
36222;BME280;22266;52.340;4.962;2023-05-11T02:43:50;101447.72;;;13.74;81.27
36222;BME280;22266;52.340;4.962;2023-05-11T02:46:26;101449.59;;;13.74;81.22
36222;BME280;22266;52.340;4.962;2023-05-11T02:48:58;101449.34;;;13.69;81.36
36222;BME280;22266;52.340;4.962;2023-05-11T02:51:35;101445.81;;;13.68;81.57
36222;BME280;22266;52.340;4.962;2023-05-11T02:54:05;101451.22;;;13.68;81.63
36222;BME280;22266;52.340;4.962;2023-05-11T02:56:37;101451.44;;;13.67;81.74
36222;BME280;22266;52.340;4.962;2023-05-11T02:59:04;101454.31;;;13.65;81.78
36222;BME280;22266;52.340;4.962;2023-05-11T03:01:30;101449.13;;;13.64;81.71
36222;BME280;22266;52.340;4.962;2023-05-11T03:03:57;101463.47;;;13.64;81.64
36222;BME280;22266;52.340;4.962;2023-05-11T03:06:25;101462.59;;;13.57;81.58
36222;BME280;22266;52.340;4.962;2023-05-11T03:08:52;101457.16;;;13.50;82.23
36222;BME280;22266;52.340;4.962;2023-05-11T03:11:19;101456.78;;;13.53;82.23
36222;BME280;22266;52.340;4.962;2023-05-11T03:13:47;101459.47;;;13.53;82.09
36222;BME280;22266;52.340;4.962;2023-05-11T03:16:17;101455.53;;;13.56;82.33
36222;BME280;22266;52.340;4.962;2023-05-11T03:18:47;101457.84;;;13.59;82.48
36222;BME280;22266;52.340;4.962;2023-05-11T03:21:17;101457.84;;;13.59;82.05
36222;BME280;22266;52.340;4.962;2023-05-11T03:23:47;101462.41;;;13.58;82.14
36222;BME280;22266;52.340;4.962;2023-05-11T03:26:16;101457.84;;;13.59;82.01
36222;BME280;22266;52.340;4.962;2023-05-11T03:28:45;101450.94;;;13.56;82.23
36222;BME280;22266;52.340;4.962;2023-05-11T03:31:13;101450.94;;;13.56;81.98
36222;BME280;22266;52.340;4.962;2023-05-11T03:33:39;101450.13;;;13.56;82.36
36222;BME280;22266;52.340;4.962;2023-05-11T03:36:09;101449.50;;;13.54;82.43
36222;BME280;22266;52.340;4.962;2023-05-11T03:38:36;101452.38;;;13.52;82.31
36222;BME280;22266;52.340;4.962;2023-05-11T03:41:05;101447.63;;;13.54;82.29
36222;BME280;22266;52.340;4.962;2023-05-11T03:43:35;101452.63;;;13.57;82.08
36222;BME280;22266;52.340;4.962;2023-05-11T03:46:03;101447.63;;;13.54;82.20
36222;BME280;22266;52.340;4.962;2023-05-11T03:48:30;101447.63;;;13.54;82.21
36222;BME280;22266;52.340;4.962;2023-05-11T03:50:58;101442.66;;;13.58;82.43
36222;BME280;22266;52.340;4.962;2023-05-11T03:53:25;101440.56;;;13.60;82.36
36222;BME280;22266;52.340;4.962;2023-05-11T03:55:52;101441.84;;;13.64;82.42
36222;BME280;22266;52.340;4.962;2023-05-11T03:58:18;101441.00;;;13.64;82.26
36222;BME280;22266;52.340;4.962;2023-05-11T04:00:45;101435.59;;;13.64;81.88
36222;BME280;22266;52.340;4.962;2023-05-11T04:03:12;101436.81;;;13.61;82.12
36222;BME280;22266;52.340;4.962;2023-05-11T04:05:39;101441.41;;;13.60;82.30
36222;BME280;22266;52.340;4.962;2023-05-11T04:08:09;101444.31;;;13.59;82.32
36222;BME280;22266;52.340;4.962;2023-05-11T04:10:36;101442.66;;;13.58;82.38
36222;BME280;22266;52.340;4.962;2023-05-11T04:13:03;101448.69;;;13.60;82.33
36222;BME280;22266;52.340;4.962;2023-05-11T04:15:30;101442.22;;;13.61;82.49
36222;BME280;22266;52.340;4.962;2023-05-11T04:17:56;101446.81;;;13.60;82.33
36222;BME280;22266;52.340;4.962;2023-05-11T04:20:23;101442.22;;;13.61;82.47
36222;BME280;22266;52.340;4.962;2023-05-11T04:22:49;101443.94;;;13.62;82.46
36222;BME280;22266;52.340;4.962;2023-05-11T04:25:16;101443.72;;;13.64;82.71
36222;BME280;22266;52.340;4.962;2023-05-11T04:27:43;101442.66;;;13.58;82.40
36222;BME280;22266;52.340;4.962;2023-05-11T04:30:10;101445.97;;;13.53;82.63
36222;BME280;22266;52.340;4.962;2023-05-11T04:32:37;101440.34;;;13.55;83.10
36222;BME280;22266;52.340;4.962;2023-05-11T04:35:04;101438.22;;;13.50;83.04
36222;BME280;22266;52.340;4.962;2023-05-11T04:37:33;101435.47;;;13.44;83.03
36222;BME280;22266;52.340;4.962;2023-05-11T04:40:01;101426.53;;;13.43;83.37
36222;BME280;22266;52.340;4.962;2023-05-11T04:42:35;101428.41;;;13.43;83.64
36222;BME280;22266;52.340;4.962;2023-05-11T04:45:03;101428.00;;;13.46;83.62
36222;BME280;22266;52.340;4.962;2023-05-11T04:47:30;101434.03;;;13.48;83.55
36222;BME280;22266;52.340;4.962;2023-05-11T04:49:57;101431.34;;;13.48;83.47
36222;BME280;22266;52.340;4.962;2023-05-11T04:52:24;101437.19;;;13.51;83.51
36222;BME280;22266;52.340;4.962;2023-05-11T04:54:51;101438.03;;;13.52;83.61
36222;BME280;22266;52.340;4.962;2023-05-11T04:57:18;101449.66;;;13.52;83.46
36222;BME280;22266;52.340;4.962;2023-05-11T04:59:45;101452.19;;;13.54;83.93
36222;BME280;22266;52.340;4.962;2023-05-11T05:02:12;101451.78;;;13.57;83.41
36222;BME280;22266;52.340;4.962;2023-05-11T05:04:38;101457.19;;;13.57;83.62
36222;BME280;22266;52.340;4.962;2023-05-11T05:07:05;101456.19;;;13.58;83.70
36222;BME280;22266;52.340;4.962;2023-05-11T05:09:32;101465.97;;;13.59;83.68
36222;BME280;22266;52.340;4.962;2023-05-11T05:11:59;101465.56;;;13.62;83.73
36222;BME280;22266;52.340;4.962;2023-05-11T05:14:25;101473.47;;;13.64;83.92
36222;BME280;22266;52.340;4.962;2023-05-11T05:16:52;101472.25;;;13.66;83.76
36222;BME280;22266;52.340;4.962;2023-05-11T05:19:20;101471.22;;;13.67;83.97
36222;BME280;22266;52.340;4.962;2023-05-11T05:21:48;101482.03;;;13.67;83.60
36222;BME280;22266;52.340;4.962;2023-05-11T05:24:14;101480.16;;;13.68;83.66
36222;BME280;22266;52.340;4.962;2023-05-11T05:26:41;101482.03;;;13.67;83.61
36222;BME280;22266;52.340;4.962;2023-05-11T05:29:10;101481.19;;;13.67;83.94
36222;BME280;22266;52.340;4.962;2023-05-11T05:31:37;101483.69;;;13.68;83.87
36222;BME280;22266;52.340;4.962;2023-05-11T05:34:04;101485.34;;;13.69;83.92
36222;BME280;22266;52.340;4.962;2023-05-11T05:36:31;101484.97;;;13.72;83.63
36222;BME280;22266;52.340;4.962;2023-05-11T05:38:58;101483.75;;;13.75;83.45
36222;BME280;22266;52.340;4.962;2023-05-11T05:41:24;101493.13;;;13.79;83.79
36222;BME280;22266;52.340;4.962;2023-05-11T05:43:52;101495.44;;;13.82;83.69
36222;BME280;22266;52.340;4.962;2023-05-11T05:46:19;101490.03;;;13.82;83.31
36222;BME280;22266;52.340;4.962;2023-05-11T05:48:46;101500.66;;;13.83;83.54
36222;BME280;22266;52.340;4.962;2023-05-11T05:51:12;101500.22;;;13.80;83.57
36222;BME280;22266;52.340;4.962;2023-05-11T05:53:39;101499.75;;;13.76;83.97
36222;BME280;22266;52.340;4.962;2023-05-11T05:56:05;101497.06;;;13.76;83.86
36222;BME280;22266;52.340;4.962;2023-05-11T05:58:32;101510.19;;;13.79;84.19
36222;BME280;22266;52.340;4.962;2023-05-11T06:00:59;101506.88;;;13.77;83.50
36222;BME280;22266;52.340;4.962;2023-05-11T06:03:26;101514.13;;;13.77;83.84
36222;BME280;22266;52.340;4.962;2023-05-11T06:05:55;101513.94;;;13.78;84.11
36222;BME280;22266;52.340;4.962;2023-05-11T06:08:22;101515.22;;;13.82;84.01
36222;BME280;22266;52.340;4.962;2023-05-11T06:10:48;101516.50;;;13.87;84.26
36222;BME280;22266;52.340;4.962;2023-05-11T06:13:15;101516.50;;;13.93;83.99
36222;BME280;22266;52.340;4.962;2023-05-11T06:15:43;101517.38;;;14.00;83.76
36222;BME280;22266;52.340;4.962;2023-05-11T06:18:21;101520.97;;;14.07;83.78
36222;BME280;22266;52.340;4.962;2023-05-11T06:20:48;101524.13;;;14.11;83.66
36222;BME280;22266;52.340;4.962;2023-05-11T06:23:16;101526.22;;;14.16;83.18
36222;BME280;22266;52.340;4.962;2023-05-11T06:25:43;101521.63;;;14.16;83.12
36222;BME280;22266;52.340;4.962;2023-05-11T06:28:10;101529.53;;;14.18;82.80
36222;BME280;22266;52.340;4.962;2023-05-11T06:30:37;101527.47;;;14.20;82.77
36222;BME280;22266;52.340;4.962;2023-05-11T06:33:06;101519.97;;;14.22;82.91
36222;BME280;22266;52.340;4.962;2023-05-11T06:35:35;101523.56;;;14.22;82.51
36222;BME280;22266;52.340;4.962;2023-05-11T06:38:04;101527.94;;;14.23;82.69
36222;BME280;22266;52.340;4.962;2023-05-11T06:40:31;101520.84;;;14.22;82.61
36222;BME280;22266;52.340;4.962;2023-05-11T06:42:58;101528.97;;;14.22;82.57
36222;BME280;22266;52.340;4.962;2023-05-11T06:45:39;101526.88;;;14.24;82.51
36222;BME280;22266;52.340;4.962;2023-05-11T06:48:07;101518.31;;;14.21;82.59
36222;BME280;22266;52.340;4.962;2023-05-11T06:50:34;101529.38;;;14.19;82.79
36222;BME280;22266;52.340;4.962;2023-05-11T06:53:00;101528.31;;;14.20;82.60
36222;BME280;22266;52.340;4.962;2023-05-11T06:55:28;101535.41;;;14.21;82.83
36222;BME280;22266;52.340;4.962;2023-05-11T06:57:54;101535.00;;;14.24;82.70
36222;BME280;22266;52.340;4.962;2023-05-11T07:00:21;101532.09;;;14.26;82.88
36222;BME280;22266;52.340;4.962;2023-05-11T07:02:47;101532.94;;;14.26;82.56
36222;BME280;22266;52.340;4.962;2023-05-11T07:05:14;101540.03;;;14.27;82.91
36222;BME280;22266;52.340;4.962;2023-05-11T07:07:40;101532.09;;;14.26;82.56
36222;BME280;22266;52.340;4.962;2023-05-11T07:10:07;101527.72;;;14.25;82.84
36222;BME280;22266;52.340;4.962;2023-05-11T07:12:34;101535.66;;;14.26;82.83
36222;BME280;22266;52.340;4.962;2023-05-11T07:15:00;101532.94;;;14.26;82.55
36222;BME280;22266;52.340;4.962;2023-05-11T07:17:27;101538.34;;;14.26;82.55
36222;BME280;22266;52.340;4.962;2023-05-11T07:19:53;101536.47;;;14.27;82.72
36222;BME280;22266;52.340;4.962;2023-05-11T07:22:20;101530.19;;;14.20;82.16
36222;BME280;22266;52.340;4.962;2023-05-11T07:24:47;101538.09;;;14.15;82.83
36222;BME280;22266;52.340;4.962;2023-05-11T07:27:13;101536.81;;;14.10;83.00
36222;BME280;22266;52.340;4.962;2023-05-11T07:29:40;101531.19;;;14.12;82.99
36222;BME280;22266;52.340;4.962;2023-05-11T07:32:06;101544.34;;;14.15;82.59
36222;BME280;22266;52.340;4.962;2023-05-11T07:34:33;101539.75;;;14.16;82.68
36222;BME280;22266;52.340;4.962;2023-05-11T07:36:59;101543.09;;;14.18;82.50
36222;BME280;22266;52.340;4.962;2023-05-11T07:39:25;101547.28;;;14.20;82.60
36222;BME280;22266;52.340;4.962;2023-05-11T07:41:52;101547.72;;;14.24;82.36
36222;BME280;22266;52.340;4.962;2023-05-11T07:44:18;101547.72;;;14.24;82.33
36222;BME280;22266;52.340;4.962;2023-05-11T07:46:45;101548.75;;;14.23;82.52
36222;BME280;22266;52.340;4.962;2023-05-11T07:49:11;101548.31;;;14.19;82.00
36222;BME280;22266;52.340;4.962;2023-05-11T07:51:48;101552.69;;;14.20;82.63
36222;BME280;22266;52.340;4.962;2023-05-11T07:54:14;101550.41;;;14.24;82.82
36222;BME280;22266;52.340;4.962;2023-05-11T07:56:41;101548.75;;;14.29;82.48
36222;BME280;22266;52.340;4.962;2023-05-11T07:59:07;101550.88;;;14.34;82.60
36222;BME280;22266;52.340;4.962;2023-05-11T08:01:34;101557.59;;;14.38;82.68
36222;BME280;22266;52.340;4.962;2023-05-11T08:04:00;101549.03;;;14.41;82.74
36222;BME280;22266;52.340;4.962;2023-05-11T08:06:27;101551.13;;;14.46;83.04
36222;BME280;22266;52.340;4.962;2023-05-11T08:08:53;101555.13;;;14.50;82.51
36222;BME280;22266;52.340;4.962;2023-05-11T08:11:20;101556.19;;;14.49;81.91
36222;BME280;22266;52.340;4.962;2023-05-11T08:13:46;101556.13;;;14.42;82.29
36222;BME280;22266;52.340;4.962;2023-05-11T08:16:13;101563.41;;;14.42;82.94
36222;BME280;22266;52.340;4.962;2023-05-11T08:18:40;101559.25;;;14.39;82.99
36222;BME280;22266;52.340;4.962;2023-05-11T08:21:06;101558.19;;;14.40;83.06
36222;BME280;22266;52.340;4.962;2023-05-11T08:23:33;101557.97;;;14.42;82.86
36222;BME280;22266;52.340;4.962;2023-05-11T08:25:59;101561.75;;;14.41;83.48
36222;BME280;22266;52.340;4.962;2023-05-11T08:28:26;101558.81;;;14.35;83.49
36222;BME280;22266;52.340;4.962;2023-05-11T08:30:54;101561.50;;;14.35;83.81
36222;BME280;22266;52.340;4.962;2023-05-11T08:33:21;101565.06;;;14.36;84.02
36222;BME280;22266;52.340;4.962;2023-05-11T08:36:03;101565.88;;;14.37;83.76
36222;BME280;22266;52.340;4.962;2023-05-11T08:38:29;101563.19;;;14.37;84.16
36222;BME280;22266;52.340;4.962;2023-05-11T08:40:56;101561.31;;;14.37;83.39
36222;BME280;22266;52.340;4.962;2023-05-11T08:43:23;101566.94;;;14.35;83.59
36222;BME280;22266;52.340;4.962;2023-05-11T08:45:56;101567.97;;;14.34;83.75
36222;BME280;22266;52.340;4.962;2023-05-11T08:48:25;101568.38;;;14.31;83.81
36222;BME280;22266;52.340;4.962;2023-05-11T08:50:52;101564.84;;;14.31;84.01
36222;BME280;22266;52.340;4.962;2023-05-11T08:53:18;101560.88;;;14.33;84.42
36222;BME280;22266;52.340;4.962;2023-05-11T08:55:45;101566.72;;;14.37;84.28
36222;BME280;22266;52.340;4.962;2023-05-11T08:58:13;101568.41;;;14.38;84.00
36222;BME280;22266;52.340;4.962;2023-05-11T09:00:47;101575.50;;;14.39;84.13
36222;BME280;22266;52.340;4.962;2023-05-11T09:03:17;101575.50;;;14.39;84.33
36222;BME280;22266;52.340;4.962;2023-05-11T09:05:46;101574.66;;;14.39;84.08
36222;BME280;22266;52.340;4.962;2023-05-11T09:08:13;101575.28;;;14.41;84.42
36222;BME280;22266;52.340;4.962;2023-05-11T09:10:41;101576.75;;;14.43;84.44
36222;BME280;22266;52.340;4.962;2023-05-11T09:13:09;101575.50;;;14.46;84.66
36222;BME280;22266;52.340;4.962;2023-05-11T09:15:36;101571.34;;;14.43;84.01
36222;BME280;22266;52.340;4.962;2023-05-11T09:18:04;101575.09;;;14.42;84.32
36222;BME280;22266;52.340;4.962;2023-05-11T09:20:32;101568.44;;;14.45;84.42
36222;BME280;22266;52.340;4.962;2023-05-11T09:22:59;101578.22;;;14.46;84.20
36222;BME280;22266;52.340;4.962;2023-05-11T09:25:28;101577.19;;;14.47;84.23
36222;BME280;22266;52.340;4.962;2023-05-11T09:27:58;101573.22;;;14.43;83.57
36222;BME280;22266;52.340;4.962;2023-05-11T09:30:25;101573.41;;;14.34;83.88
36222;BME280;22266;52.340;4.962;2023-05-11T09:32:57;101576.28;;;14.33;83.96
36222;BME280;22266;52.340;4.962;2023-05-11T09:35:32;101575.25;;;14.34;83.83
36222;BME280;22266;52.340;4.962;2023-05-11T09:38:01;101574.84;;;14.37;84.04
36222;BME280;22266;52.340;4.962;2023-05-11T09:40:35;101566.75;;;14.44;84.00
36222;BME280;22266;52.340;4.962;2023-05-11T09:43:14;101570.09;;;14.46;83.61
36222;BME280;22266;52.340;4.962;2023-05-11T09:45:43;101578.81;;;14.41;83.87
36222;BME280;22266;52.340;4.962;2023-05-11T09:50:47;101578.94;;;14.54;84.05
36222;BME280;22266;52.340;4.962;2023-05-11T09:53:14;101581.03;;;14.59;84.02
36222;BME280;22266;52.340;4.962;2023-05-11T09:55:51;101576.88;;;14.63;83.82
36222;BME280;22266;52.340;4.962;2023-05-11T09:58:18;101574.16;;;14.63;84.14
36222;BME280;22266;52.340;4.962;2023-05-11T10:00:52;101574.59;;;14.67;84.10
36222;BME280;22266;52.340;4.962;2023-05-11T10:03:19;101582.09;;;14.65;83.45
36222;BME280;22266;52.340;4.962;2023-05-11T10:05:57;101585.84;;;14.64;83.61
36222;BME280;22266;52.340;4.962;2023-05-11T10:08:28;101592.88;;;14.58;83.64
36222;BME280;22266;52.340;4.962;2023-05-11T10:10:56;101591.44;;;14.55;84.27
36222;BME280;22266;52.340;4.962;2023-05-11T10:13:23;101591.75;;;14.46;83.84
36222;BME280;22266;52.340;4.962;2023-05-11T10:15:50;101591.75;;;14.39;84.45
36222;BME280;22266;52.340;4.962;2023-05-11T10:18:17;101597.13;;;14.32;83.65
36222;BME280;22266;52.340;4.962;2023-05-11T10:20:46;101590.81;;;14.25;84.33
36222;BME280;22266;52.340;4.962;2023-05-11T10:23:13;101596.25;;;14.25;84.53
36222;BME280;22266;52.340;4.962;2023-05-11T10:25:40;101598.78;;;14.27;84.84
36222;BME280;22266;52.340;4.962;2023-05-11T10:28:08;101592.75;;;14.31;84.66
36222;BME280;22266;52.340;4.962;2023-05-11T10:30:35;101587.72;;;14.28;84.72
36222;BME280;22266;52.340;4.962;2023-05-11T10:33:03;101587.50;;;14.30;84.23
36222;BME280;22266;52.340;4.962;2023-05-11T10:35:31;101585.25;;;14.33;84.43
36222;BME280;22266;52.340;4.962;2023-05-11T10:37:59;101592.97;;;14.37;84.23
36222;BME280;22266;52.340;4.962;2023-05-11T10:40:26;101583.38;;;14.34;83.81
36222;BME280;22266;52.340;4.962;2023-05-11T10:56:51;101596.34;;;14.45;85.12
36222;BME280;22266;52.340;4.962;2023-05-11T11:00:35;101595.19;;;14.54;84.22
36222;BME280;22266;52.340;4.962;2023-05-11T11:02:29;101588.13;;;14.60;83.79
36222;BME280;22266;52.340;4.962;2023-05-11T11:04:56;101603.16;;;14.63;82.93
36222;BME280;22266;52.340;4.962;2023-05-11T11:07:24;101593.34;;;14.68;83.07
36222;BME280;22266;52.340;4.962;2023-05-11T11:09:57;101589.81;;;14.68;82.58
36222;BME280;22266;52.340;4.962;2023-05-11T11:12:26;101590.25;;;14.71;82.60
36222;BME280;22266;52.340;4.962;2023-05-11T11:14:58;101586.72;;;14.77;82.54
36222;BME280;22266;52.340;4.962;2023-05-11T11:17:30;101584.84;;;14.84;83.44
36222;BME280;22266;52.340;4.962;2023-05-11T11:19:58;101588.25;;;15.00;84.02
36222;BME280;22266;52.340;4.962;2023-05-11T11:25:10;101599.28;;;14.92;82.23
36222;BME280;22266;52.340;4.962;2023-05-11T11:30:20;101592.75;;;14.73;83.10
36222;BME280;22266;52.340;4.962;2023-05-11T11:32:52;101586.28;;;14.74;82.75
36222;BME280;22266;52.340;4.962;2023-05-11T11:38:09;101583.56;;;14.74;81.08
36222;BME280;22266;52.340;4.962;2023-05-11T11:40:41;101587.09;;;14.68;81.62
36222;BME280;22266;52.340;4.962;2023-05-11T11:43:24;101596.28;;;14.67;81.65
36222;BME280;22266;52.340;4.962;2023-05-11T11:45:59;101589.38;;;14.64;82.55
36222;BME280;22266;52.340;4.962;2023-05-11T11:48:30;101591.25;;;14.70;82.64
36222;BME280;22266;52.340;4.962;2023-05-11T11:51:11;101586.88;;;14.63;81.25
36222;BME280;22266;52.340;4.962;2023-05-11T11:58:59;101576.09;;;14.76;82.98
36222;BME280;22266;52.340;4.962;2023-05-11T12:01:33;101575.03;;;14.77;81.05
36222;BME280;22266;52.340;4.962;2023-05-11T12:06:40;101580.66;;;14.82;81.64
36222;BME280;22266;52.340;4.962;2023-05-11T12:09:06;101571.94;;;14.93;82.02
36222;BME280;22266;52.340;4.962;2023-05-11T12:11:33;101582.81;;;15.00;80.92
36222;BME280;22266;52.340;4.962;2023-05-11T12:14:01;101583.84;;;14.99;80.12
36222;BME280;22266;52.340;4.962;2023-05-11T12:16:28;101588.03;;;15.01;81.09
36222;BME280;22266;52.340;4.962;2023-05-11T12:18:58;101585.16;;;15.16;81.06
36222;BME280;22266;52.340;4.962;2023-05-11T12:21:29;101588.09;;;15.28;80.32
36222;BME280;22266;52.340;4.962;2023-05-11T12:24:00;101587.88;;;15.29;79.64
36222;BME280;22266;52.340;4.962;2023-05-11T12:26:28;101577.84;;;15.37;79.30
36222;BME280;22266;52.340;4.962;2023-05-11T12:29:12;101583.91;;;15.39;78.23
36222;BME280;22266;52.340;4.962;2023-05-11T12:31:41;101596.00;;;15.29;77.62
36222;BME280;22266;52.340;4.962;2023-05-11T12:34:15;101583.28;;;15.30;78.43
36222;BME280;22266;52.340;4.962;2023-05-11T12:36:46;101578.91;;;15.36;78.53
36222;BME280;22266;52.340;4.962;2023-05-11T12:39:20;101576.59;;;15.39;78.54
36222;BME280;22266;52.340;4.962;2023-05-11T12:41:49;101577.00;;;15.43;77.52
36222;BME280;22266;52.340;4.962;2023-05-11T12:44:17;101584.72;;;15.39;78.03
36222;BME280;22266;52.340;4.962;2023-05-11T12:46:45;101583.69;;;15.47;77.97
36222;BME280;22266;52.340;4.962;2023-05-11T12:49:17;101579.31;;;15.46;77.77
36222;BME280;22266;52.340;4.962;2023-05-11T12:54:31;101588.72;;;15.37;77.20
36222;BME280;22266;52.340;4.962;2023-05-11T12:56:59;101587.66;;;15.38;75.71
36222;BME280;22266;52.340;4.962;2023-05-11T12:59:36;101583.50;;;15.42;76.22
36222;BME280;22266;52.340;4.962;2023-05-11T13:04:33;101583.94;;;15.65;75.82
36222;BME280;22266;52.340;4.962;2023-05-11T13:06:59;101586.84;;;15.77;75.44
36222;BME280;22266;52.340;4.962;2023-05-11T13:09:26;101587.06;;;15.82;74.56
36222;BME280;22266;52.340;4.962;2023-05-11T13:12:26;101583.69;;;15.87;73.24
36222;BME280;22266;52.340;4.962;2023-05-11T13:15:23;101585.59;;;15.86;73.24
36222;BME280;22266;52.340;4.962;2023-05-11T13:17:58;101588.72;;;15.83;72.44
36222;BME280;22266;52.340;4.962;2023-05-11T13:20:31;101579.75;;;15.82;72.52
36222;BME280;22266;52.340;4.962;2023-05-11T13:23:05;101589.53;;;15.83;73.89
36222;BME280;22266;52.340;4.962;2023-05-11T13:25:33;101582.03;;;15.86;74.45
36222;BME280;22266;52.340;4.962;2023-05-11T13:28:00;101583.06;;;15.91;72.16
36222;BME280;22266;52.340;4.962;2023-05-11T13:30:27;101576.59;;;15.99;73.20
36222;BME280;22266;52.340;4.962;2023-05-11T13:32:53;101583.47;;;16.01;71.45
36222;BME280;22266;52.340;4.962;2023-05-11T13:35:20;101591.22;;;16.04;70.72
36222;BME280;22266;52.340;4.962;2023-05-11T13:37:46;101578.66;;;16.10;70.57
36222;BME280;22266;52.340;4.962;2023-05-11T13:40:12;101581.75;;;16.20;69.96